San Sebastián, Francia

6:43 AM CEST en Abril 24, 2018 (GMT +0200)
Irun Azken Portu | | Change Station

Alt 36 ft 43.34 °N, 1.78 °W | Updated 3 minutes ago

Muy nublado
Muy nublado
60.2 ° F
Sensación térmica 60.2 ° F
N
0.0
Viento Variable Viento desde ESE
Gusts 10.0 mph

Hoy
Alta -- | Baja -- ° F
--% Posibilidad de precipitaciones
Ayer
Alta -- | Baja -- ° F
Precip. -- pul
Presión 30.12 pul
Visibilidad 6.2 Millas
Nubes Baja 1000 ft
Nubes dispersas 1700 ft
Muy nublado 2700 ft
Punto de rocío 57 ° F
Humedad 90%
Precipitaciones 0.00 pul
Espesor de la nieve No disponible.
7:10 AM 9:00 PM
Gibosa creciente, 64% visible
METAR LESO 240430Z 00000KT 9999 FEW010 SCT017 BKN027 15/14 Q1020
Presión 30.12 pul
Visibilidad 6.2 Millas
Nubes Baja 1000 ft
Nubes dispersas 1700 ft
Muy nublado 2700 ft
Punto de rocío 57 ° F
Humedad 90%
Precipitaciones 0.00 pul
Espesor de la nieve No disponible.
7:10 AM 9:00 PM
Gibosa creciente, 64% visible
METAR LESO 240430Z 00000KT 9999 FEW010 SCT017 BKN027 15/14 Q1020

Get Severe Weather Alerts

Thanks for signing up!

Be on the lookout for a verification email in your inbox.

You'll start receiving the daily forecast at 6 AM.

×

10-Day Weather Forecast

×

Almanac

Astronomía

Apr. 24, 2018 Salida Puesta
Hora real
Crepúsculo civil
Crepúsculo náutico
Crepúsculo astronómico
Luna
Horas de luz
Horas de luz
Tomorrow will be .
, % of the Moon is Illuminated

Extremos de hoy

Máximos del país Bajas del país

Community

WunderPhotos

Category 6

Welcome to Category 6. This is the collective home for Weather Underground's featured writeups by Dr. Jeff Masters (right), Bob Henson (left), Chris Burt, and other regular contributors.

Nearby

Calidad del aire

  Calidad del aire Índice AQ Contaminante
Not available.

Grosos de nieve

Estación Profundido Altura

Actividad de terremotos

Ciudad Distance Mag. Tiempo y dato
Magnitud mínima muestra es 2,5.

Temperaturas de aguas costeras

Lugar Temperatura

Stations

Estaciones meteorológicas cercanas

Ubicación de la estación Temp. Vientos helados Punto de rocío Humedad Viento Precip. Alt Actualizado Tipo